Axtell, KS (66403)

9:58 AM CDT on May 24, 2017 (GMT -0500)
Southern Seneca | | Change Station
Active Advisory: Flood Warning Active Notice: Public Information Statement

Elev 1148 ft 39.83 °N, 96.07 °W | Updated 6 seconds ago

Partly Cloudy
Partly Cloudy
60.1 °F
Feels Like 60.1 °F
N
1.3
Wind Variable Wind from South
Gusts 5.4 mph

Today
High -- | Low -- °F
--% Chance of Precip.
Yesterday
High -- | Low -- °F
Precip. -- in
Pressure 29.74 in
Visibility 10.0 miles
Clouds Few 1700 ft
Scattered Clouds 5000 ft
Dew Point 51 °F
Humidity 73%
Rainfall 0.00 in
Snow Depth Not available.
6:02 AM 8:41 PM
Waning Crescent, 2% visible
METAR KFNB 241453Z AUTO 33011G19KT 10SM FEW017 SCT050 14/09 A2974 RMK AO2 SLP070 T01390094 50001
Pressure 29.74 in
Visibility 10.0 miles
Clouds Few 1700 ft
Scattered Clouds 5000 ft
Dew Point 51 °F
Humidity 73%
Rainfall 0.00 in
Snow Depth Not available.
6:02 AM 8:41 PM
Waning Crescent, 2% visible
METAR KFNB 241453Z AUTO 33011G19KT 10SM FEW017 SCT050 14/09 A2974 RMK AO2 SLP070 T01390094 50001

Get Your Daily Forecast Email!

Thanks for signing up!

Be on the lookout for a verification email in your inbox.

You'll start receiving severe weather alerts in your inbox..

×

10-Day Weather Forecast

Almanac

Astronomy

May. 24, 2017 Rise Set
Actual Time
Civil Twilight
Nautical Twilight
Astronomical Twilight
Moon
Length of Visible Light
Length of Day
Tomorrow will be .
, % of the Moon is Illuminated

Today's Extremes

State Highs State Lows

Community

WunderPhotos

Category 6

Welcome to Category 6. This is the collective home for Weather Underground's featured writeups by Dr. Jeff Masters (right), Bob Henson (left), Chris Burt, and other regular contributors.

Nearby

Air Quality

  Air Quality AQ Index Pollutant
Not available.

Snow Depth

Station Depth Elevation

Earthquake Activity

City Distance Mag. Time & Date
Minimum magnitude displayed is 2.5.

Coastal Water Temperatures

Place Temperature

Stations

Nearby Weather Stations

Station Location Temp. Windchill Dew Point Humidity Wind Precip. Elev Updated Type
                   

Watches & Warnings

Flood Warning
Issued: 8:08 AM CDT May. 24, 2017 – National Weather Service

The Flood Warning continues for
the big Blue River near Blue Rapids.
* Until late tonight.
* At 7:15 am Wednesday the stage was 26.7 feet.
* Flood stage is 26.0 feet.
* Forecast... the river will continue to fall to below flood stage by
this afternoon.
* Impact... at 26.0 feet... minor lowland flooding occurs from
Marysville to Tuttle Creek Lake.


Lat... Lon 3971 9666 3968 9658 3957 9655 3957 9659 3968 9669